Time;durP1;ratioP1;P1;durP2;ratioP2;P2;SDS_P1;SDS_P2;PMS_P1;PMS_P2;Temp;Humidity;BMP_temperature;BMP_pressure;BME280_temperature;BME280_humidity;BME280_pressure;Samples;Min_cycle;Max_cycle;Signal;HPM_P1;HPM_P2
2023/09/06 00:00:45;;;;;;;3.03;1.63;;;24.30;64.90;;;;;;4999983;28;20041;-79
2023/09/06 00:03:12;;;;;;;2.78;1.85;;;24.30;64.90;;;;;;4995855;28;20089;-81
2023/09/06 00:05:41;;;;;;;3.40;2.15;;;24.30;65.20;;;;;;5002340;28;20054;-79
2023/09/06 00:08:14;;;;;;;2.67;2.00;;;24.20;65.40;;;;;;4984863;28;20033;-79
2023/09/06 00:10:41;;;;;;;2.90;1.83;;;24.00;65.30;;;;;;5011373;28;20108;-80
2023/09/06 00:13:08;;;;;;;2.80;1.63;;;23.90;65.70;;;;;;4995970;28;20135;-81
2023/09/06 00:15:35;;;;;;;2.00;1.80;;;23.90;65.70;;;;;;4997936;28;20022;-80
2023/09/06 00:18:05;;;;;;;2.08;1.88;;;23.90;66.00;;;;;;4995582;28;20482;-80
2023/09/06 00:20:34;;;;;;;;;;;23.80;66.40;;;;;;4998201;28;20054;-80
2023/09/06 00:23:01;;;;;;;3.83;2.55;;;23.60;66.80;;;;;;4996567;28;20381;-80
2023/09/06 00:25:31;;;;;;;3.65;1.90;;;23.50;67.10;;;;;;5005959;28;20022;-80
2023/09/06 00:27:57;;;;;;;4.90;1.83;;;23.50;66.90;;;;;;4990468;28;20023;-80
2023/09/06 00:30:23;;;;;;;2.40;1.70;;;23.60;67.30;;;;;;5006869;28;20038;-80
2023/09/06 00:32:52;;;;;;;3.28;1.70;;;23.60;67.00;;;;;;5001917;28;20073;-80
2023/09/06 00:35:24;;;;;;;2.53;1.80;;;23.60;66.90;;;;;;5006003;28;20541;-80
2023/09/06 00:37:50;;;;;;;3.17;1.30;;;23.60;67.00;;;;;;5010597;28;20046;-80
2023/09/06 00:40:21;;;;;;;2.40;1.73;;;23.60;66.90;;;;;;4999404;28;20026;-79
2023/09/06 00:42:59;;;;;;;3.33;2.00;;;23.60;66.80;;;;;;4995683;28;20038;-79
2023/09/06 00:45:28;;;;;;;2.28;1.50;;;23.70;66.90;;;;;;4997367;28;20113;-79
2023/09/06 00:47:56;;;;;;;1.95;1.63;;;23.70;66.70;;;;;;4995733;28;20038;-80
2023/09/06 00:50:22;;;;;;;2.80;2.00;;;23.80;66.80;;;;;;4998482;28;20053;-78
2023/09/06 00:52:51;;;;;;;3.80;1.98;;;23.90;67.00;;;;;;5008867;28;20495;-78
2023/09/06 00:55:41;;;;;;;2.80;2.00;;;23.90;66.80;;;;;;4983055;28;20023;-79
2023/09/06 00:58:08;;;;;;;2.10;1.73;;;24.00;66.80;;;;;;5006207;28;20034;-82
2023/09/06 01:00:35;;;;;;;2.45;1.83;;;23.90;66.80;;;;;;5002815;28;20065;-82
2023/09/06 01:03:05;;;;;;;2.47;1.70;;;24.00;66.60;;;;;;5009612;28;20026;-81
2023/09/06 01:05:40;;;;;;;3.70;2.47;;;24.00;66.60;;;;;;4995946;28;20124;-80
2023/09/06 01:08:08;;;;;;;5.45;2.05;;;24.00;66.60;;;;;;4991139;28;20030;-81
2023/09/06 01:10:35;;;;;;;3.38;2.00;;;24.00;66.60;;;;;;5007239;28;20391;-79
2023/09/06 01:13:00;;;;;;;3.50;1.88;;;24.00;66.70;;;;;;4994197;28;20019;-79
2023/09/06 01:15:27;;;;;;;2.45;1.65;;;24.00;66.70;;;;;;4994546;28;20026;-80
2023/09/06 01:17:54;;;;;;;2.25;1.80;;;23.90;66.60;;;;;;5007247;28;20045;-80
2023/09/06 01:20:40;;;;;;;2.13;1.80;;;23.90;66.80;;;;;;5007652;28;20076;-80
2023/09/06 01:23:34;;;;;;;4.03;2.13;;;23.90;67.20;;;;;;4995218;28;20030;-79
2023/09/06 01:26:01;;;;;;;2.58;1.80;;;23.70;67.40;;;;;;4981785;28;20088;-80
2023/09/06 01:28:27;;;;;;;2.50;1.77;;;23.60;67.50;;;;;;5001929;28;20030;-81
2023/09/06 01:30:56;;;;;;;2.40;1.75;;;23.50;67.90;;;;;;4997578;28;20026;-80
2023/09/06 01:33:22;;;;;;;2.78;1.80;;;23.50;67.90;;;;;;4994825;28;20030;-80
2023/09/06 01:35:51;;;;;;;3.00;1.83;;;23.50;67.90;;;;;;4993427;28;20057;-81
2023/09/06 01:38:17;;;;;;;2.05;1.55;;;23.50;68.00;;;;;;4994895;28;20030;-82
2023/09/06 01:40:43;;;;;;;5.90;1.90;;;23.60;68.10;;;;;;5000225;28;20034;-81
2023/09/06 01:43:09;;;;;;;3.75;2.38;;;23.60;68.10;;;;;;5000404;28;20118;-81
2023/09/06 01:45:37;;;;;;;4.40;2.28;;;23.50;68.00;;;;;;4990047;28;20054;-79
2023/09/06 01:48:03;;;;;;;2.80;2.20;;;23.40;68.30;;;;;;4994892;28;20037;-79
2023/09/06 01:50:29;;;;;;;2.22;1.75;;;23.30;68.20;;;;;;4996735;28;20030;-80
2023/09/06 01:52:57;;;;;;;5.78;1.75;;;23.30;68.40;;;;;;4995054;28;20021;-80
2023/09/06 01:55:23;;;;;;;4.63;1.80;;;23.30;68.30;;;;;;4998087;28;20479;-80
2023/09/06 01:57:48;;;;;;;2.40;1.70;;;23.30;68.20;;;;;;5001043;28;20101;-77
2023/09/06 02:00:27;;;;;;;3.33;1.88;;;23.40;68.30;;;;;;5003912;28;20058;-77
2023/09/06 02:02:57;;;;;;;7.78;2.58;;;23.30;68.40;;;;;;4993218;28;20076;-77
2023/09/06 02:05:23;;;;;;;4.20;1.80;;;23.30;68.90;;;;;;4997545;28;20066;-77
2023/09/06 02:07:51;;;;;;;4.63;1.80;;;23.20;68.80;;;;;;4994010;28;20142;-76
2023/09/06 02:10:17;;;;;;;2.70;1.85;;;23.30;68.70;;;;;;4997676;28;20030;-77
2023/09/06 02:12:44;;;;;;;4.63;2.20;;;23.30;68.70;;;;;;5010950;28;20026;-77
2023/09/06 02:15:14;;;;;;;2.92;1.65;;;23.40;68.60;;;;;;4994007;28;20498;-77
2023/09/06 02:17:44;;;;;;;4.97;1.85;;;23.40;68.50;;;;;;4996264;28;20031;-77
2023/09/06 02:20:22;;;;;;;3.60;1.83;;;23.50;68.40;;;;;;4997742;28;20085;-77
2023/09/06 02:23:07;;;;;;;2.15;1.80;;;23.50;68.40;;;;;;4997735;28;20508;-79
2023/09/06 02:25:33;;;;;;;3.63;1.88;;;23.60;68.50;;;;;;4992798;28;20030;-79
2023/09/06 02:28:05;;;;;;;2.13;1.70;;;23.60;68.40;;;;;;4976844;28;20030;-82
2023/09/06 02:30:32;;;;;;;4.82;2.10;;;23.60;68.30;;;;;;4998922;28;20035;-78
2023/09/06 02:33:09;;;;;;;2.63;1.70;;;23.60;68.10;;;;;;4994991;28;20018;-80
2023/09/06 02:35:35;;;;;;;4.28;1.80;;;23.60;68.00;;;;;;5004747;28;20062;-80
2023/09/06 02:38:01;;;;;;;3.20;1.70;;;23.60;67.90;;;;;;4994565;28;20065;-80
2023/09/06 02:40:26;;;;;;;1.98;1.73;;;23.60;68.00;;;;;;4998689;28;20045;-80
2023/09/06 02:42:53;;;;;;;2.10;1.70;;;23.50;67.90;;;;;;4994919;28;20705;-80
2023/09/06 02:45:37;;;;;;;2.67;1.80;;;23.50;67.90;;;;;;4993927;28;20032;-80
2023/09/06 02:48:12;;;;;;;2.00;1.80;;;23.50;68.40;;;;;;5002361;28;20025;-80
2023/09/06 02:50:39;;;;;;;3.17;1.70;;;23.50;68.60;;;;;;4975060;28;20141;-80
2023/09/06 02:53:15;;;;;;;3.05;1.80;;;23.50;68.40;;;;;;4993152;28;20022;-80
2023/09/06 02:55:41;;;;;;;1.92;1.58;;;23.50;68.20;;;;;;4992745;28;20037;-83
2023/09/06 02:58:07;;;;;;;3.03;1.70;;;23.40;68.10;;;;;;4977666;28;20089;-82
2023/09/06 03:00:36;;;;;;;2.78;1.88;;;23.40;68.20;;;;;;4994128;28;20042;-81
2023/09/06 03:03:05;;;;;;;4.13;1.70;;;23.30;68.30;;;;;;4976104;28;20419;-81
2023/09/06 03:05:32;;;;;;;2.20;1.60;;;23.30;68.90;;;;;;5020526;23;20090;-84
2023/09/06 03:07:57;;;;;;;3.10;2.00;;;23.20;68.60;;;;;;5002220;28;20268;-87
2023/09/06 03:10:23;;;;;;;3.55;2.25;;;23.20;68.90;;;;;;5013767;28;20080;-91
2023/09/06 03:12:54;;;;;;;4.00;2.22;;;23.20;68.70;;;;;;4997319;28;20026;-90
2023/09/06 03:15:23;;;;;;;2.13;1.70;;;23.20;68.80;;;;;;5012261;28;20028;-79
2023/09/06 03:17:53;;;;;;;2.35;1.60;;;23.10;69.20;;;;;;5001718;28;20062;-82
2023/09/06 03:20:21;;;;;;;2.63;1.50;;;23.00;69.40;;;;;;4992456;28;20038;-79
2023/09/06 03:22:51;;;;;;;3.10;1.85;;;23.00;69.70;;;;;;4986394;28;20061;-88
2023/09/06 03:25:18;;;;;;;4.50;2.03;;;23.00;70.00;;;;;;5013906;28;20413;-89
2023/09/06 03:27:44;;;;;;;2.30;1.90;;;23.00;69.90;;;;;;4996250;28;20029;-89
2023/09/06 03:30:15;;;;;;;3.10;1.98;;;23.00;70.40;;;;;;4998269;28;20031;-88
2023/09/06 03:32:42;;;;;;;3.10;2.20;;;23.00;70.40;;;;;;5011557;28;20037;-86
2023/09/06 03:35:08;;;;;;;4.63;2.10;;;23.00;70.40;;;;;;4993654;28;20072;-87
2023/09/06 03:37:34;;;;;;;5.00;2.05;;;22.90;70.60;;;;;;4983837;28;20029;-89
2023/09/06 03:40:00;;;;;;;3.28;2.28;;;22.80;70.80;;;;;;4980791;28;20034;-87
2023/09/06 03:42:26;;;;;;;3.95;2.30;;;22.80;70.90;;;;;;4982069;28;21186;-88
2023/09/06 03:44:52;;;;;;;3.50;2.10;;;22.80;71.10;;;;;;5004160;28;20025;-89
2023/09/06 03:47:19;;;;;;;7.90;2.25;;;22.80;71.30;;;;;;4989207;28;20042;-89
2023/09/06 03:49:45;;;;;;;6.78;2.78;;;22.70;71.70;;;;;;5005860;28;20027;-89
2023/09/06 03:52:11;;;;;;;5.93;2.60;;;22.60;71.60;;;;;;4998040;28;20026;-79
2023/09/06 03:54:37;;;;;;;5.35;2.13;;;22.60;72.20;;;;;;4998666;28;20030;-78
2023/09/06 03:57:04;;;;;;;3.13;2.33;;;22.50;72.00;;;;;;5004722;28;20095;-78
2023/09/06 03:59:35;;;;;;;3.28;2.00;;;22.50;72.10;;;;;;5006039;28;20026;-79
2023/09/06 04:02:02;;;;;;;4.70;2.50;;;22.50;72.40;;;;;;5009462;28;20038;-80
2023/09/06 04:04:29;;;;;;;5.53;2.22;;;22.40;72.70;;;;;;4996612;28;20037;-78
2023/09/06 04:06:55;;;;;;;5.25;2.30;;;22.30;72.80;;;;;;4997959;28;20108;-78
2023/09/06 04:09:31;;;;;;;3.22;2.10;;;22.20;73.70;;;;;;4997042;28;20471;-78
2023/09/06 04:11:59;;;;;;;3.47;2.22;;;22.20;72.90;;;;;;4999099;28;20475;-77
2023/09/06 04:14:24;;;;;;;2.60;1.90;;;22.20;73.20;;;;;;5003344;28;20081;-77
2023/09/06 04:16:50;;;;;;;3.00;2.30;;;22.10;73.20;;;;;;5000249;28;20410;-78
2023/09/06 04:19:16;;;;;;;2.75;2.30;;;22.10;73.10;;;;;;4995835;28;20029;-78
2023/09/06 04:21:41;;;;;;;4.40;2.25;;;22.20;73.30;;;;;;4995945;28;20364;-78
2023/09/06 04:24:07;;;;;;;1.73;1.63;;;22.20;73.30;;;;;;4996452;28;20046;-78
2023/09/06 04:26:34;;;;;;;3.45;2.42;;;22.10;73.50;;;;;;5007339;28;20151;-78
2023/09/06 04:29:02;;;;;;;5.18;2.40;;;22.10;73.80;;;;;;4992511;28;20034;-79
2023/09/06 04:31:29;;;;;;;3.08;2.60;;;22.00;74.10;;;;;;4996849;28;20109;-78
2023/09/06 04:34:01;;;;;;;5.03;1.63;;;21.90;74.00;;;;;;4999803;28;20033;-78
2023/09/06 04:36:26;;;;;;;4.07;2.40;;;21.90;74.20;;;;;;5006887;28;20072;-78
2023/09/06 04:38:53;;;;;;;3.08;2.10;;;21.90;74.00;;;;;;5010920;28;20113;-79
2023/09/06 04:41:18;;;;;;;3.03;2.08;;;21.90;74.20;;;;;;4997108;28;20134;-78
2023/09/06 04:43:45;;;;;;;2.30;2.05;;;22.00;74.10;;;;;;4999169;28;20058;-78
2023/09/06 04:46:11;;;;;;;3.30;1.85;;;22.00;74.10;;;;;;5012401;28;20409;-78
2023/09/06 04:48:36;;;;;;;6.03;2.80;;;22.10;73.80;;;;;;5013449;28;20034;-78
2023/09/06 04:51:02;;;;;;;3.92;2.00;;;22.10;73.70;;;;;;4995689;28;20105;-78
2023/09/06 04:53:28;;;;;;;3.40;2.50;;;22.20;73.70;;;;;;5002110;28;20108;-78
2023/09/06 04:55:54;;;;;;;2.80;2.13;;;22.20;73.70;;;;;;5004069;28;20458;-81
2023/09/06 04:58:20;;;;;;;3.38;2.10;;;22.30;73.70;;;;;;4995343;28;20029;-81
2023/09/06 05:00:50;;;;;;;4.45;2.38;;;22.30;73.70;;;;;;4980163;28;21045;-80
2023/09/06 05:03:19;;;;;;;2.08;1.80;;;22.30;73.70;;;;;;5012145;28;20034;-79
2023/09/06 05:05:47;;;;;;;4.97;1.83;;;22.30;73.80;;;;;;5009481;28;20125;-76
2023/09/06 05:08:12;;;;;;;3.63;1.95;;;22.30;73.80;;;;;;5011044;28;20031;-77
2023/09/06 05:10:41;;;;;;;2.20;2.00;;;22.30;74.00;;;;;;4996928;28;20046;-77
2023/09/06 05:13:07;;;;;;;4.32;2.20;;;22.40;74.00;;;;;;4997877;28;20062;-77
2023/09/06 05:15:37;;;;;;;7.72;3.20;;;22.40;73.80;;;;;;5008857;28;20080;-77
2023/09/06 05:18:04;;;;;;;3.17;2.00;;;22.40;73.80;;;;;;4996822;28;20022;-79
2023/09/06 05:20:37;;;;;;;5.97;2.10;;;22.40;73.70;;;;;;4997681;28;20462;-76
2023/09/06 05:23:05;;;;;;;2.28;1.88;;;22.40;74.20;;;;;;4994832;28;20466;-77
2023/09/06 05:25:32;;;;;;;3.67;2.55;;;22.40;73.70;;;;;;4995003;28;20037;-77
2023/09/06 05:28:00;;;;;;;5.45;2.83;;;22.40;73.70;;;;;;4995634;28;20038;-76
2023/09/06 05:30:26;;;;;;;3.17;2.35;;;22.40;73.60;;;;;;4981807;28;20038;-77
2023/09/06 05:32:56;;;;;;;3.70;2.72;;;22.40;73.70;;;;;;4993172;28;20049;-78
2023/09/06 05:35:25;;;;;;;4.90;2.73;;;22.40;73.70;;;;;;4998614;28;20030;-78
2023/09/06 05:37:51;;;;;;;2.97;2.10;;;22.30;73.60;;;;;;4994760;28;20718;-78
2023/09/06 05:40:22;;;;;;;2.83;2.20;;;22.20;73.60;;;;;;4995123;28;20010;-76
2023/09/06 05:42:52;;;;;;;3.88;2.20;;;22.20;74.00;;;;;;4994714;28;20026;-76
2023/09/06 05:45:20;;;;;;;3.65;2.13;;;22.10;74.10;;;;;;5001032;28;20034;-80
2023/09/06 05:47:46;;;;;;;2.58;2.05;;;22.00;74.20;;;;;;4991042;28;20449;-81
2023/09/06 05:50:12;;;;;;;4.25;2.03;;;22.10;74.30;;;;;;4974781;28;20030;-81
2023/09/06 05:52:38;;;;;;;2.72;1.90;;;22.10;74.60;;;;;;4994222;28;20046;-81
2023/09/06 05:55:04;;;;;;;2.90;2.17;;;22.20;74.40;;;;;;4993956;28;20015;-81
2023/09/06 05:57:33;;;;;;;3.00;2.35;;;22.20;74.40;;;;;;4975561;28;20023;-81
2023/09/06 06:00:00;;;;;;;3.92;2.25;;;22.20;74.10;;;;;;4994681;28;20018;-81
2023/09/06 06:02:25;;;;;;;3.10;1.88;;;22.20;74.10;;;;;;4992432;28;20050;-80
2023/09/06 06:04:52;;;;;;;4.90;2.20;;;22.20;74.00;;;;;;4992829;28;20030;-82
2023/09/06 06:07:18;;;;;;;4.82;2.00;;;22.20;74.10;;;;;;4998017;28;20124;-80
2023/09/06 06:09:44;;;;;;;6.40;1.85;;;22.30;74.40;;;;;;4999798;28;20067;-90
2023/09/06 06:12:10;;;;;;;3.42;1.98;;;22.20;74.30;;;;;;4997149;28;20034;-84
2023/09/06 06:14:37;;;;;;;2.72;2.10;;;22.30;74.20;;;;;;4994990;28;20030;-89
2023/09/06 06:17:05;;;;;;;4.38;1.95;;;22.30;74.00;;;;;;4996928;28;20109;-88
2023/09/06 06:19:32;;;;;;;3.00;1.85;;;22.30;74.00;;;;;;4993427;28;20026;-88
2023/09/06 06:22:00;;;;;;;6.53;2.40;;;22.40;73.80;;;;;;5003397;28;20022;-90
2023/09/06 06:24:31;;;;;;;4.57;1.60;;;22.50;74.10;;;;;;4985392;28;20026;-92
2023/09/06 06:27:06;;;;;;;8.77;2.50;;;22.50;73.80;;;;;;5003833;28;20030;-91
2023/09/06 06:29:33;;;;;;;3.30;1.55;;;22.60;73.60;;;;;;4979327;28;20362;-82
2023/09/06 06:31:59;;;;;;;4.03;1.95;;;22.60;73.60;;;;;;4996107;28;20034;-90
2023/09/06 06:34:26;;;;;;;4.25;2.20;;;22.60;73.50;;;;;;4997639;28;20049;-90
2023/09/06 06:36:51;;;;;;;2.70;1.90;;;22.60;73.30;;;;;;4997207;28;20026;-92
2023/09/06 06:39:17;;;;;;;2.88;1.67;;;22.60;73.10;;;;;;5001370;28;20021;-91
2023/09/06 06:41:44;;;;;;;3.75;2.03;;;22.70;73.10;;;;;;4997177;28;20479;-91
2023/09/06 06:44:10;;;;;;;4.40;1.70;;;22.80;73.20;;;;;;5012644;28;20057;-91
2023/09/06 06:46:38;;;;;;;4.38;2.03;;;22.90;73.30;;;;;;5017652;28;20040;-89
2023/09/06 06:49:07;;;;;;;2.65;1.52;;;23.00;72.80;;;;;;4998412;28;20021;-89
2023/09/06 06:51:38;;;;;;;2.30;1.70;;;23.00;72.80;;;;;;5009204;28;20034;-88
2023/09/06 06:54:14;;;;;;;4.72;1.85;;;23.10;72.30;;;;;;4999947;28;20019;-88
2023/09/06 06:56:40;;;;;;;8.73;2.92;;;23.20;71.90;;;;;;4998108;28;20026;-84
2023/09/06 06:59:07;;;;;;;4.22;1.95;;;23.30;70.60;;;;;;4996677;28;20041;-88
2023/09/06 07:01:33;;;;;;;2.60;1.60;;;23.30;70.20;;;;;;5011666;28;20498;-88
2023/09/06 07:04:00;;;;;;;10.00;2.25;;;23.40;70.80;;;;;;5018100;28;20076;-87
2023/09/06 07:06:27;;;;;;;3.38;1.92;;;23.40;70.70;;;;;;5014608;28;20064;-81
2023/09/06 07:08:56;;;;;;;2.05;1.70;;;23.60;70.20;;;;;;5012710;28;20022;-80
2023/09/06 07:11:22;;;;;;;3.03;1.60;;;23.60;69.20;;;;;;4995543;28;20382;-81
2023/09/06 07:13:50;;;;;;;1.77;1.58;;;23.70;69.20;;;;;;5012778;28;20034;-81
2023/09/06 07:16:19;;;;;;;3.97;2.15;;;23.70;68.90;;;;;;5013535;28;20026;-81
2023/09/06 07:18:46;;;;;;;1.90;1.30;;;23.80;67.70;;;;;;5013914;28;20056;-82
2023/09/06 07:21:13;;;;;;;4.75;1.83;;;23.80;68.60;;;;;;5013548;28;20038;-82
2023/09/06 07:23:38;;;;;;;4.80;1.67;;;23.90;68.10;;;;;;5013595;28;20441;-81
2023/09/06 07:26:06;;;;;;;1.63;1.45;;;24.00;68.10;;;;;;5015391;28;20065;-81
2023/09/06 07:28:37;;;;;;;2.17;1.52;;;24.10;68.30;;;;;;5017358;28;20358;-81
2023/09/06 07:31:03;;;;;;;3.50;1.83;;;24.20;68.70;;;;;;5017058;28;20335;-81
2023/09/06 07:33:28;;;;;;;2.85;1.50;;;24.30;68.10;;;;;;5017125;28;20034;-80
2023/09/06 07:35:54;;;;;;;3.42;1.50;;;24.30;67.60;;;;;;5016259;28;20065;-82
2023/09/06 07:38:19;;;;;;;2.00;1.63;;;24.40;67.50;;;;;;5016496;28;20026;-82
2023/09/06 07:40:45;;;;;;;1.60;1.30;;;24.40;67.40;;;;;;5017121;28;20030;-81
2023/09/06 07:43:12;;;;;;;2.80;1.70;;;24.60;67.30;;;;;;5016808;28;20036;-82
2023/09/06 07:45:38;;;;;;;2.72;1.60;;;24.70;67.20;;;;;;5016879;28;20460;-81
2023/09/06 07:48:04;;;;;;;2.83;1.50;;;24.70;66.60;;;;;;5016872;28;20479;-81
2023/09/06 07:50:30;;;;;;;2.00;1.40;;;24.80;66.90;;;;;;5016601;28;20030;-81
2023/09/06 07:52:56;;;;;;;1.80;1.50;;;24.80;66.90;;;;;;5016729;28;20076;-81
2023/09/06 07:55:21;;;;;;;2.92;1.50;;;24.90;66.20;;;;;;5016632;28;20078;-81
2023/09/06 07:57:47;;;;;;;5.72;1.55;;;25.00;66.20;;;;;;5015415;28;20026;-82
2023/09/06 08:00:13;;;;;;;2.13;1.35;;;25.00;66.70;;;;;;5017050;28;20022;-81
2023/09/06 08:02:39;;;;;;;3.45;1.58;;;25.10;66.10;;;;;;5016753;28;20033;-81
2023/09/06 08:05:05;;;;;;;2.58;1.60;;;25.30;66.70;;;;;;5016573;28;20030;-81
2023/09/06 08:07:32;;;;;;;5.40;1.90;;;25.30;66.00;;;;;;5016207;28;20449;-81
2023/09/06 08:10:00;;;;;;;3.58;1.83;;;25.30;64.40;;;;;;4998878;28;20065;-81
2023/09/06 08:12:25;;;;;;;2.47;1.40;;;25.40;64.80;;;;;;5016316;28;20029;-81
2023/09/06 08:14:51;;;;;;;2.10;1.77;;;25.40;65.10;;;;;;5016659;28;20030;-81
2023/09/06 08:17:17;;;;;;;2.78;1.75;;;25.50;65.30;;;;;;5016039;28;20050;-81
2023/09/06 08:19:42;;;;;;;1.70;1.50;;;25.50;65.00;;;;;;5016447;28;20032;-81
2023/09/06 08:22:08;;;;;;;3.05;1.70;;;25.60;65.20;;;;;;5015097;28;20569;-81
2023/09/06 08:24:34;;;;;;;2.17;1.30;;;25.70;64.50;;;;;;5016321;28;20034;-81
2023/09/06 08:27:00;;;;;;;2.60;1.50;;;25.80;63.80;;;;;;5016261;28;20382;-81
2023/09/06 08:29:25;;;;;;;4.15;1.77;;;25.90;64.40;;;;;;5016051;28;20041;-80
2023/09/06 08:31:51;;;;;;;2.00;1.67;;;26.00;63.60;;;;;;5016018;28;20474;-81
2023/09/06 08:34:17;;;;;;;2.70;1.45;;;26.00;63.90;;;;;;5016022;28;20048;-80
2023/09/06 08:36:42;;;;;;;1.40;1.30;;;26.10;63.30;;;;;;5015303;28;20050;-80
2023/09/06 08:39:08;;;;;;;1.67;1.38;;;26.20;63.30;;;;;;5015602;28;20037;-81
2023/09/06 08:41:34;;;;;;;2.45;1.70;;;26.20;62.30;;;;;;5015516;28;20021;-81
2023/09/06 08:44:03;;;;;;;2.05;1.40;;;26.30;63.20;;;;;;5015593;28;20093;-81
2023/09/06 08:46:38;;;;;;;5.65;1.35;;;26.50;62.80;;;;;;4998071;28;20030;-80
2023/09/06 08:49:04;;;;;;;2.53;1.55;;;26.60;63.00;;;;;;5015582;28;20085;-80
2023/09/06 08:51:35;;;;;;;1.73;1.42;;;26.60;62.80;;;;;;5012137;28;20105;-81
2023/09/06 08:54:05;;;;;;;1.58;1.48;;;26.70;62.90;;;;;;4996279;28;20459;-81
2023/09/06 08:56:31;;;;;;;;;;;26.90;63.40;;;;;;4996348;28;20470;-81
2023/09/06 08:58:58;;;;;;;2.20;1.88;;;27.00;62.50;;;;;;4978497;28;19906;-80
2023/09/06 09:01:23;;;;;;;3.70;1.98;;;27.00;62.30;;;;;;4995779;28;20063;-81
2023/09/06 09:03:49;;;;;;;2.80;1.60;;;27.10;62.40;;;;;;4995578;28;20073;-82
2023/09/06 09:06:15;;;;;;;2.85;1.40;;;27.20;62.90;;;;;;4978173;28;20058;-80
2023/09/06 09:08:40;;;;;;;4.20;2.38;;;27.30;62.40;;;;;;4995758;28;20097;-81
2023/09/06 09:11:14;;;;;;;2.47;1.70;;;27.30;60.60;;;;;;4995881;28;20038;-82
2023/09/06 09:13:44;;;;;;;2.33;1.70;;;27.30;61.40;;;;;;4995680;28;20037;-81
2023/09/06 09:16:11;;;;;;;4.63;2.00;;;27.40;61.90;;;;;;4995310;28;20494;-82
2023/09/06 09:18:38;;;;;;;4.75;1.65;;;27.40;60.10;;;;;;4995623;28;20073;-81
2023/09/06 09:21:04;;;;;;;3.53;1.60;;;27.50;61.80;;;;;;5003631;28;20045;-81
2023/09/06 09:23:54;;;;;;;2.05;1.60;;;27.50;60.90;;;;;;5014711;28;20416;-80
2023/09/06 09:26:20;;;;;;;;;;;27.70;61.50;;;;;;5015400;28;20112;-80
2023/09/06 09:28:46;;;;;;;1.80;1.40;;;27.90;61.80;;;;;;5014910;28;19968;-80
2023/09/06 09:31:18;;;;;;;1.88;1.30;;;28.10;61.10;;;;;;5014809;28;20367;-81
2023/09/06 09:33:49;;;;;;;2.60;1.45;;;28.20;60.20;;;;;;5014905;28;20466;-80
2023/09/06 09:36:16;;;;;;;1.95;1.33;;;28.30;58.50;;;;;;5014916;28;20370;-81
2023/09/06 09:38:48;;;;;;;1.75;1.50;;;28.40;59.70;;;;;;5014869;28;20033;-80
2023/09/06 09:41:14;;;;;;;3.08;1.33;;;28.50;58.30;;;;;;5014793;28;20014;-80
2023/09/06 09:43:40;;;;;;;1.63;1.30;;;28.60;59.00;;;;;;5014215;28;20034;-80
2023/09/06 09:46:06;;;;;;;1.67;1.13;;;28.70;59.60;;;;;;5014145;28;20037;-81
2023/09/06 09:48:32;;;;;;;2.13;1.42;;;28.90;58.00;;;;;;5013654;28;20029;-82
2023/09/06 09:51:04;;;;;;;2.65;1.20;;;28.90;57.60;;;;;;5005845;28;20080;-80
2023/09/06 09:53:32;;;;;;;1.98;1.30;;;29.10;58.10;;;;;;4994874;28;20543;-82
2023/09/06 09:56:06;;;;;;;4.22;1.40;;;29.20;58.00;;;;;;4994700;28;20378;-80
2023/09/06 09:58:34;;;;;;;1.98;1.50;;;29.40;58.10;;;;;;4994799;28;20022;-82
2023/09/06 10:01:01;;;;;;;2.58;1.40;;;29.50;56.80;;;;;;4977343;28;20035;-82
2023/09/06 10:03:27;;;;;;;1.50;1.40;;;29.60;57.50;;;;;;4994642;28;20041;-82
2023/09/06 10:05:54;;;;;;;3.03;1.38;;;29.70;56.80;;;;;;4994109;28;20073;-81
2023/09/06 10:08:21;;;;;;;2.67;1.52;;;29.80;57.20;;;;;;4994665;28;20041;-81
2023/09/06 10:10:47;;;;;;;2.20;1.50;;;29.90;56.00;;;;;;4994440;28;20019;-81
2023/09/06 10:13:14;;;;;;;2.20;1.50;;;30.00;56.30;;;;;;4994796;28;20101;-81
2023/09/06 10:15:43;;;;;;;2.33;1.50;;;30.00;56.30;;;;;;4994617;28;20026;-82
2023/09/06 10:18:08;;;;;;;5.93;1.98;;;30.00;54.50;;;;;;4994554;28;20030;-81
2023/09/06 10:20:37;;;;;;;3.78;1.67;;;29.80;54.50;;;;;;4999708;28;20041;-81
2023/09/06 10:23:05;;;;;;;3.72;1.63;;;29.70;55.60;;;;;;4983252;28;20447;-82
2023/09/06 10:25:32;;;;;;;4.85;1.75;;;29.70;56.20;;;;;;4994198;28;20027;-80
2023/09/06 10:27:59;;;;;;;2.10;1.52;;;29.90;55.70;;;;;;4994295;28;20029;-81
2023/09/06 10:30:48;;;;;;;1.70;1.60;;;30.00;56.00;;;;;;4976957;28;20050;-80
2023/09/06 10:33:35;;;;;;;4.65;1.45;;;30.20;54.30;;;;;;4994144;28;20065;-81
2023/09/06 10:36:12;;;;;;;3.75;1.75;;;30.40;54.10;;;;;;4993917;28;20042;-81
2023/09/06 10:38:51;;;;;;;1.58;1.13;;;30.50;53.60;;;;;;4994469;28;20035;-81
2023/09/06 10:41:18;;;;;;;1.55;1.13;;;30.60;54.30;;;;;;4993992;28;20034;-81
2023/09/06 10:43:54;;;;;;;3.25;1.15;;;30.80;54.90;;;;;;4993711;28;20034;-81
2023/09/06 10:46:22;;;;;;;3.28;1.45;;;31.10;55.30;;;;;;4993771;28;20018;-81
2023/09/06 10:49:12;;;;;;;2.28;1.48;;;31.30;54.00;;;;;;4994159;28;20026;-81
2023/09/06 10:52:04;;;;;;;1.95;1.20;;;31.50;54.60;;;;;;5009025;28;20068;-81
2023/09/06 10:54:43;;;;;;;1.95;1.30;;;31.70;53.70;;;;;;5013525;28;20053;-81
2023/09/06 10:57:14;;;;;;;1.67;1.33;;;32.00;53.50;;;;;;5013585;28;20030;-80
2023/09/06 10:59:44;;;;;;;2.20;1.00;;;32.10;53.10;;;;;;4994977;28;20026;-82
2023/09/06 11:02:13;;;;;;;2.13;1.40;;;32.30;53.10;;;;;;5013576;28;20030;-81
2023/09/06 11:04:39;;;;;;;1.55;1.20;;;32.40;52.80;;;;;;5013525;28;20038;-81
2023/09/06 11:07:10;;;;;;;1.80;1.33;;;32.50;51.80;;;;;;5013200;28;20061;-81
2023/09/06 11:09:50;;;;;;;1.50;1.20;;;32.60;50.20;;;;;;5013264;28;20488;-81
2023/09/06 11:12:16;;;;;;;1.80;1.25;;;32.70;51.30;;;;;;4995623;28;20030;-81
2023/09/06 11:14:47;;;;;;;3.55;1.38;;;32.80;51.70;;;;;;5013380;28;20064;-81
2023/09/06 11:17:20;;;;;;;3.45;1.23;;;32.90;50.20;;;;;;5013594;28;20014;-81
2023/09/06 11:19:46;;;;;;;1.98;1.13;;;33.00;50.20;;;;;;4994793;28;20112;-81
2023/09/06 11:22:12;;;;;;;2.13;1.10;;;33.20;51.60;;;;;;5006948;28;20106;-80
2023/09/06 11:24:38;;;;;;;3.63;1.30;;;33.20;50.30;;;;;;4993382;28;20200;-81
2023/09/06 11:27:21;;;;;;;2.15;1.30;;;33.30;50.90;;;;;;4993631;28;20022;-81
2023/09/06 11:29:59;;;;;;;2.70;1.65;;;33.40;51.20;;;;;;4993554;28;20076;-81
2023/09/06 11:32:29;;;;;;;1.75;1.20;;;33.60;51.70;;;;;;4993574;28;20019;-81
2023/09/06 11:34:55;;;;;;;1.60;1.48;;;33.70;51.60;;;;;;4993914;28;20511;-81
2023/09/06 11:37:22;;;;;;;5.88;1.45;;;34.00;51.20;;;;;;4993843;28;20451;-80
2023/09/06 11:39:49;;;;;;;2.38;1.45;;;34.20;50.20;;;;;;4993701;28;20058;-81
2023/09/06 11:42:16;;;;;;;2.72;1.30;;;34.30;50.50;;;;;;4993382;28;20023;-81
2023/09/06 11:44:47;;;;;;;2.05;1.30;;;34.50;51.50;;;;;;4993679;28;20490;-81
2023/09/06 11:47:23;;;;;;;1.75;1.17;;;34.90;50.90;;;;;;4993398;28;20042;-81
2023/09/06 11:49:49;;;;;;;2.35;1.55;;;35.10;50.60;;;;;;4993587;28;20027;-81
2023/09/06 11:52:19;;;;;;;1.35;1.25;;;35.30;49.50;;;;;;4993209;28;20041;-81
2023/09/06 11:54:52;;;;;;;1.83;1.10;;;35.50;50.30;;;;;;4993299;28;20374;-81
2023/09/06 11:57:30;;;;;;;1.67;1.35;;;35.60;50.00;;;;;;4976139;28;20696;-81
2023/09/06 11:59:57;;;;;;;3.00;1.20;;;35.80;49.40;;;;;;4993217;28;20459;-81
2023/09/06 12:02:31;;;;;;;1.60;1.30;;;36.10;49.90;;;;;;4993543;28;20434;-80
2023/09/06 12:05:03;;;;;;;1.95;1.35;;;36.20;48.90;;;;;;4993017;28;20061;-81
2023/09/06 12:07:30;;;;;;;5.55;1.60;;;36.40;48.30;;;;;;4994842;28;20089;-81
2023/09/06 12:09:58;;;;;;;2.92;1.30;;;36.50;47.10;;;;;;4979260;28;20475;-78
2023/09/06 12:12:27;;;;;;;2.72;1.20;;;36.50;48.10;;;;;;4978056;28;20062;-80
2023/09/06 12:14:53;;;;;;;2.95;1.35;;;36.60;47.60;;;;;;5000380;28;20026;-80
2023/09/06 12:17:19;;;;;;;2.35;1.00;;;36.70;46.80;;;;;;4996531;28;20030;-80
2023/09/06 12:19:45;;;;;;;2.00;1.20;;;36.80;46.00;;;;;;4998465;28;20034;-81
2023/09/06 12:22:17;;;;;;;3.90;1.65;;;36.70;43.70;;;;;;5016150;28;20022;-81
2023/09/06 12:24:46;;;;;;;1.88;0.90;;;36.50;45.20;;;;;;5016307;28;20475;-80
2023/09/06 12:27:15;;;;;;;1.55;0.98;;;36.40;45.10;;;;;;5016446;28;20026;-80
2023/09/06 12:29:42;;;;;;;2.20;1.10;;;36.50;45.50;;;;;;5016125;28;20044;-81
2023/09/06 12:32:08;;;;;;;1.42;1.13;;;36.50;45.30;;;;;;5015833;28;20366;-81
2023/09/06 12:34:34;;;;;;;4.53;1.17;;;36.70;45.00;;;;;;5015475;28;20113;-80
2023/09/06 12:37:00;;;;;;;0.80;0.80;;;36.80;44.00;;;;;;4997007;28;20172;-81
2023/09/06 12:39:26;;;;;;;1.08;0.98;;;36.80;43.70;;;;;;4996323;28;20041;-81
2023/09/06 12:41:51;;;;;;;2.08;0.80;;;36.80;43.50;;;;;;4996400;28;20022;-81
2023/09/06 12:44:18;;;;;;;1.45;0.95;;;36.90;43.50;;;;;;4978250;28;20030;-81
2023/09/06 12:46:43;;;;;;;1.30;1.00;;;36.80;43.00;;;;;;4978837;28;20026;-81
2023/09/06 12:49:09;;;;;;;1.20;1.00;;;36.90;43.50;;;;;;4996540;28;20497;-81
2023/09/06 12:51:36;;;;;;;1.58;1.08;;;36.80;42.10;;;;;;4995159;28;20374;-81
2023/09/06 12:54:03;;;;;;;2.17;1.20;;;36.70;43.50;;;;;;5015960;28;20076;-81